Hanalei, Hawaii
Current Conditions -  °F | °C
As of 8:53 PM on Thursday 30 Oct 2014 (Local Time) from PHLI Reporting Station
Broken Clouds Broken Clouds  
Wind Chill: 76°   Ceiling: 7000
Heat Index: 76°   Visibility: 10mi
Dew Point: 70°   Wind: 18mph
Humidity: 82%   Direction: 60°ENE
Pressure: 30.11"   Gusts: 26mph
Location:  22.2°N, 159.49°W
Report Text: PHLI 310653Z 06016G23KT 10SM SCT048 BKN070 24/21 A3011 RMK AO2 PK WND 07029/0619 RAB19E32 SLP193 P0006 T02440211
Loading
Personal Weather Stations






























Interactive Weather Map New forecast layout! Learn more

10-Day Weather Forecast

Advertisements
Track Severe Weather on mobile